Jacksonville, FL (32257)

3:32 AM EDT on September 17, 2014 (GMT -0400)
Mandarin / Julington Crk | Change Station
CLOSE
Current Station
Personal Weather Station
Location: Jacksonville, FL
Elevation: 21 ft
Nearby Weather Stations
Active Advisory: Coastal Hazard Statement Active Notice: Local Storm Report

Elev 21 ft 30.18 °N, 81.59 °W | Updated 0 second ago

Overcast
Overcast
74.1 °F
Feels Like 71 °F
N
1.4
Wind Variable Wind from NW
Gusts 1.4 mph

Today
High -- | Low -- °F
--% Chance of Precip.
Yesterday
High -- | Low -- °F
Precip. -- in
7:12 AM 7:29 PM
Last Quarter, 38% visible
Pressure 29.93 in
Visibility 9.0 miles
Clouds Overcast 500 ft
Heat Index 71 °F
Dew Point 73 °F
Humidity 95%
Rainfall 0.00 in
Snow Depth Not available.
UV 0.0 out of 12
Pollen 4.60 out of 12
Ozone Good
PM2.5 Good
Flu Activity Not available.
METAR KNIP 170653Z 30005KT 9SM OVC005 24/22 A2994 RMK AO2 SLP134 T02390222

More Conditions Fewer Conditions

Pressure 29.93 in
Visibility 9.0 miles
Clouds Overcast 500 ft
Heat Index 71 °F
Dew Point 73 °F
Humidity 95%
Rainfall 0.00 in
Snow Depth Not available.
UV 0.0 out of 12
Pollen 4.60 out of 12
Ozone Good
PM2.5 Good
Flu Activity Not available.
METAR KNIP 170653Z 30005KT 9SM OVC005 24/22 A2994 RMK AO2 SLP134 T02390222

More Conditions Fewer Conditions

10-Day Weather Forecast

Almanac

Astronomy

Sep. 17, 2014 Rise Set
Actual Time 7:12 AM EDT 7:29 PM EDT
Civil Twilight 6:48 AM EDT 7:53 PM EDT
Nautical Twilight 6:19 AM EDT 8:21 PM EDT
Astronomical Twilight 5:51 AM EDT 8:49 PM EDT
Moon 1:28 AM EDT 3:20 PM EDT
Length of Visible Light 13h 05m
Length of Day
12h 17m
Tomorrow will be 1m 48s shorter.
Last Quarter, 38% of the Moon is Illuminated
Today
Last Quarter
Sep 24
New
Oct 1
First Quarter
Oct 8
Full
Oct 15
Last Quarter

Today's Extremes

State Highs State Lows

Community

WunderPhotos

Upload Photos

1,753,976 photos uploaded!

Nearby

Air Quality

  Air Quality AQ Index Pollutant
Yesterday Good
PM2.5
Yesterday Good
OZONE
Current Good
OZONE
Current Good
PM2.5
Wednesday Good
OZONE
Wednesday Good
PM2.5

Snow Depth

Station Depth Elevation
No new snow has been reported.

Earthquake Activity

City Distance Mag. Time & Date
No recent earthquake activity has been reported nearby.
Minimum magnitude displayed is 2.5.

Coastal Water Temperatures

Place Temperature
Mayport (Bar Pilots Dock), FL 84.0 °F
Fernandina Beach, FL 84.9 °F

Nearby Weather Stations